createdAt,value
2022-08-01T00:00:53.198Z,40.75
2022-08-01T00:03:20.596Z,40.52
2022-08-01T00:05:48.731Z,40.95
2022-08-01T00:08:16.087Z,41.76
2022-08-01T00:10:43.338Z,41.50
2022-08-01T00:13:10.718Z,41.08
2022-08-01T00:15:40.989Z,41.96
2022-08-01T00:18:19.201Z,42.89
2022-08-01T00:20:46.551Z,41.89
2022-08-01T00:23:13.950Z,42.73
2022-08-01T00:25:41.264Z,41.93
2022-08-01T00:28:09.639Z,42.54
2022-08-01T00:30:37.390Z,42.82
2022-08-01T00:33:04.806Z,42.87
2022-08-01T00:35:32.122Z,42.88
2022-08-01T00:37:59.541Z,43.50
2022-08-01T00:40:26.931Z,44.19
2022-08-01T00:42:54.190Z,44.33
2022-08-01T00:45:21.565Z,44.17
2022-08-01T00:47:48.902Z,44.07
2022-08-01T00:50:22.829Z,44.09
2022-08-01T00:52:52.634Z,44.17
2022-08-01T00:55:21.283Z,44.37
2022-08-01T00:58:02.812Z,44.22
2022-08-01T01:00:52.588Z,45.62
2022-08-01T01:03:29.403Z,45.45
2022-08-01T01:06:20.409Z,45.18
2022-08-01T01:09:06.763Z,45.42
2022-08-01T01:11:58.842Z,45.95
2022-08-01T01:14:39.731Z,46.92
2022-08-01T01:17:08.833Z,44.92
2022-08-01T01:19:43.169Z,45.19
2022-08-01T01:22:21.168Z,47.24
2022-08-01T01:25:18.707Z,47.99
2022-08-01T01:28:34.930Z,45.92
2022-08-01T01:31:04.429Z,46.34
2022-08-01T01:33:34.309Z,45.85
2022-08-01T01:36:11.857Z,46.17
2022-08-01T01:38:43.021Z,45.42
2022-08-01T01:41:16.727Z,45.69
2022-08-01T01:43:45.990Z,45.18
2022-08-01T01:46:16.541Z,45.15
2022-08-01T01:48:46.104Z,44.97
2022-08-01T01:51:16.163Z,45.35
2022-08-01T01:53:46.142Z,45.51
2022-08-01T01:56:17.345Z,46.25
2022-08-01T01:58:46.711Z,47.48
2022-08-01T02:01:15.047Z,48.07
2022-08-01T02:03:44.634Z,46.51
2022-08-01T02:06:17.974Z,47.37
2022-08-01T02:08:46.961Z,47.13
2022-08-01T02:11:20.583Z,47.30
2022-08-01T02:13:59.675Z,47.58
2022-08-01T02:16:32.641Z,47.54
2022-08-01T02:19:03.335Z,48.27
2022-08-01T02:21:36.063Z,48.37
2022-08-01T02:24:14.646Z,48.67
2022-08-01T02:26:50.394Z,49.25
2022-08-01T02:29:28.330Z,49.38
2022-08-01T02:31:56.107Z,49.85
2022-08-01T02:34:29.090Z,49.59
2022-08-01T02:36:57.431Z,49.56
2022-08-01T02:39:27.218Z,49.09
2022-08-01T02:42:00.201Z,49.90
2022-08-01T02:44:33.950Z,49.10
2022-08-01T02:47:03.461Z,49.47
2022-08-01T02:49:43.634Z,49.22
2022-08-01T02:52:16.803Z,49.64
2022-08-01T02:54:49.656Z,49.33
2022-08-01T02:57:19.388Z,49.51
2022-08-01T02:59:50.482Z,49.78
2022-08-01T03:02:19.461Z,51.15
2022-08-01T03:04:56.793Z,50.38
2022-08-01T03:07:25.083Z,50.46
2022-08-01T03:10:02.909Z,50.83
2022-08-01T03:12:31.955Z,49.86
2022-08-01T03:15:01.753Z,48.99
2022-08-01T03:17:30.447Z,49.57
2022-08-01T03:20:00.690Z,48.84
2022-08-01T03:22:30.174Z,48.48
2022-08-01T03:25:00.202Z,49.19
2022-08-01T03:27:27.775Z,49.63
2022-08-01T03:29:59.871Z,50.06
2022-08-01T03:32:29.262Z,50.10
2022-08-01T03:34:58.479Z,49.82
2022-08-01T03:37:33.538Z,50.44
2022-08-01T03:40:10.836Z,50.38
2022-08-01T03:42:51.552Z,52.90
2022-08-01T03:45:33.548Z,52.39
2022-08-01T03:48:04.459Z,52.91
2022-08-01T03:50:34.893Z,52.03
2022-08-01T03:53:05.178Z,52.90
2022-08-01T03:55:34.113Z,55.88
2022-08-01T03:58:05.111Z,54.37
2022-08-01T04:00:36.397Z,52.71
2022-08-01T04:03:04.251Z,52.80
2022-08-01T04:05:32.407Z,53.08
2022-08-01T04:08:00.677Z,55.30
2022-08-01T04:10:28.092Z,54.86
2022-08-01T04:12:55.518Z,54.29
2022-08-01T04:15:22.850Z,54.89
2022-08-01T04:17:50.324Z,54.56
2022-08-01T04:20:18.595Z,53.55
2022-08-01T04:22:45.960Z,52.85
2022-08-01T04:25:29.151Z,53.55
2022-08-01T04:27:58.243Z,55.42
2022-08-01T04:30:30.777Z,54.45
2022-08-01T04:33:06.087Z,52.45
2022-08-01T04:36:01.942Z,51.32
2022-08-01T04:38:28.295Z,52.20
2022-08-01T04:40:57.306Z,50.39
2022-08-01T04:43:24.844Z,50.44
2022-08-01T04:45:52.719Z,52.44
2022-08-01T04:48:22.949Z,52.25
2022-08-01T04:50:51.385Z,49.97
2022-08-01T04:53:23.075Z,52.72
2022-08-01T04:55:50.733Z,52.90
2022-08-01T04:58:19.586Z,51.84
2022-08-01T05:00:47.633Z,52.75
2022-08-01T05:03:15.243Z,52.32
2022-08-01T05:05:42.673Z,52.66
2022-08-01T05:08:11.065Z,50.84
2022-08-01T05:10:38.477Z,51.08
2022-08-01T05:13:07.507Z,51.85
2022-08-01T05:15:38.083Z,51.50
2022-08-01T05:18:05.909Z,50.86
2022-08-01T05:20:36.250Z,51.36
2022-08-01T05:23:05.093Z,51.98
2022-08-01T05:25:49.678Z,52.41
2022-08-01T05:28:20.952Z,51.38
2022-08-01T05:30:48.328Z,52.41
2022-08-01T05:33:15.700Z,51.68
2022-08-01T05:35:48.643Z,50.35
2022-08-01T05:38:17.590Z,51.33
2022-08-01T05:40:45.023Z,50.36
2022-08-01T05:43:12.376Z,50.06
2022-08-01T05:45:39.678Z,50.99
2022-08-01T05:48:07.153Z,49.85
2022-08-01T05:50:34.905Z,50.33
2022-08-01T05:53:02.319Z,50.43
2022-08-01T05:55:29.951Z,50.83
2022-08-01T05:57:57.450Z,49.97
2022-08-01T06:00:24.844Z,47.58
2022-08-01T06:02:52.150Z,49.00
2022-08-01T06:05:19.728Z,49.43
2022-08-01T06:07:47.094Z,48.54
2022-08-01T06:10:14.468Z,49.04
2022-08-01T06:12:41.992Z,47.68
2022-08-01T06:15:09.690Z,49.06
2022-08-01T06:17:37.072Z,50.07
2022-08-01T06:20:08.032Z,49.93
2022-08-01T06:22:35.679Z,50.97
2022-08-01T06:25:03.452Z,49.46
2022-08-01T06:27:30.804Z,51.11
2022-08-01T06:29:58.351Z,50.19
2022-08-01T06:32:27.998Z,49.86
2022-08-01T06:34:57.121Z,51.04
2022-08-01T06:37:24.587Z,50.13
2022-08-01T06:39:51.926Z,49.58
2022-08-01T06:42:19.268Z,48.19
2022-08-01T06:44:46.727Z,47.93
2022-08-01T06:47:14.125Z,48.39
2022-08-01T06:49:41.469Z,46.40
2022-08-01T06:52:09.946Z,44.23
2022-08-01T06:54:37.470Z,43.76
2022-08-01T06:57:09.690Z,42.22
2022-08-01T06:59:37.044Z,41.89
2022-08-01T07:02:04.859Z,42.20
2022-08-01T07:04:32.428Z,41.49
2022-08-01T07:07:02.872Z,41.40
2022-08-01T07:09:30.397Z,40.14
2022-08-01T07:11:57.826Z,41.29
2022-08-01T07:14:25.450Z,42.35
2022-08-01T07:16:52.942Z,43.89
2022-08-01T07:19:20.423Z,43.57
2022-08-01T07:21:49.347Z,43.85
2022-08-01T07:24:19.506Z,42.17
2022-08-01T07:26:53.984Z,41.26
2022-08-01T07:29:24.015Z,40.01
2022-08-01T07:31:56.254Z,41.43
2022-08-01T07:34:24.134Z,39.80
2022-08-01T07:36:52.442Z,39.69
2022-08-01T07:39:20.759Z,40.73
2022-08-01T07:42:06.740Z,41.13
2022-08-01T07:44:36.746Z,37.72
2022-08-01T07:47:05.591Z,37.88
2022-08-01T07:49:37.743Z,37.92
2022-08-01T07:52:07.750Z,38.99
2022-08-01T07:54:35.618Z,38.41
2022-08-01T07:57:05.348Z,39.53
2022-08-01T07:59:32.822Z,39.75
2022-08-01T08:02:00.813Z,39.17
2022-08-01T08:04:29.705Z,38.83
2022-08-01T08:06:57.012Z,38.42
2022-08-01T08:09:25.049Z,38.03
2022-08-01T08:11:52.476Z,38.26
2022-08-01T08:14:20.269Z,37.95
2022-08-01T08:16:48.259Z,36.81
2022-08-01T08:19:15.699Z,36.28
2022-08-01T08:21:43.345Z,36.87
2022-08-01T08:24:20.881Z,37.14
2022-08-01T08:26:57.374Z,35.76
2022-08-01T08:29:25.814Z,36.06
2022-08-01T08:31:54.376Z,35.37
2022-08-01T08:34:22.787Z,34.86
2022-08-01T08:36:50.412Z,36.87
2022-08-01T08:39:19.726Z,35.40
2022-08-01T08:41:49.367Z,34.95
2022-08-01T08:44:19.126Z,35.14
2022-08-01T08:46:52.294Z,35.70
2022-08-01T08:49:22.556Z,35.45
2022-08-01T08:51:52.096Z,33.58
2022-08-01T08:54:31.377Z,34.12
2022-08-01T08:57:01.213Z,34.85
2022-08-01T08:59:29.583Z,34.78
2022-08-01T09:01:58.460Z,34.95
2022-08-01T09:04:27.338Z,34.95
2022-08-01T09:06:55.300Z,35.81
2022-08-01T09:09:24.603Z,35.24
2022-08-01T09:11:56.895Z,34.79
2022-08-01T09:14:30.845Z,34.58
2022-08-01T09:17:02.637Z,35.06
2022-08-01T09:19:48.787Z,34.23
2022-08-01T09:22:19.412Z,34.65
2022-08-01T09:25:02.205Z,34.30
2022-08-01T09:27:30.536Z,34.12
2022-08-01T09:30:11.336Z,34.46
2022-08-01T09:32:55.490Z,34.40
2022-08-01T09:35:30.034Z,33.25
2022-08-01T09:38:16.960Z,32.43
2022-08-01T09:40:58.164Z,31.88
2022-08-01T09:43:35.283Z,33.11
2022-08-01T09:46:14.224Z,32.89
2022-08-01T09:49:03.568Z,33.92
2022-08-01T09:51:59.558Z,34.57
2022-08-01T09:54:34.543Z,34.10
2022-08-01T09:57:13.786Z,34.25
2022-08-01T09:59:58.217Z,33.97
2022-08-01T10:02:31.037Z,33.34
2022-08-01T10:05:07.415Z,33.49
2022-08-01T10:07:42.999Z,33.52
2022-08-01T10:10:15.120Z,33.77
2022-08-01T10:12:45.135Z,34.28
2022-08-01T10:15:17.982Z,33.32
2022-08-01T10:17:57.396Z,32.89
2022-08-01T10:20:30.713Z,33.91
2022-08-01T10:23:06.311Z,33.52
2022-08-01T10:25:46.741Z,32.05
2022-08-01T10:28:21.319Z,32.73
2022-08-01T10:30:50.018Z,33.76
2022-08-01T10:33:51.365Z,33.51
2022-08-01T10:36:10.702Z,33.47
2022-08-01T10:38:38.615Z,33.20
2022-08-01T10:41:08.877Z,33.44
2022-08-01T10:43:37.003Z,33.38
2022-08-01T10:46:05.669Z,33.34
2022-08-01T10:48:50.373Z,31.95
2022-08-01T10:51:21.399Z,31.97
2022-08-01T10:53:56.057Z,31.52
2022-08-01T10:56:27.216Z,32.20
2022-08-01T10:59:06.406Z,31.91
2022-08-01T11:01:37.357Z,30.83
2022-08-01T11:04:13.899Z,31.25
2022-08-01T11:06:53.390Z,31.46
2022-08-01T11:09:40.599Z,31.18
2022-08-01T11:12:14.464Z,31.52
2022-08-01T11:15:00.218Z,30.97
2022-08-01T11:17:42.115Z,31.59
2022-08-01T11:20:15.537Z,31.56
2022-08-01T11:23:17.374Z,31.16
2022-08-01T11:26:05.708Z,32.11
2022-08-01T11:28:35.788Z,30.83
2022-08-01T11:31:11.173Z,31.69
2022-08-01T11:33:42.410Z,31.13
2022-08-01T11:36:14.372Z,31.37
2022-08-01T11:39:14.118Z,30.31
2022-08-01T11:41:44.262Z,30.87
2022-08-01T11:44:13.444Z,30.18
2022-08-01T11:46:51.609Z,29.98
2022-08-01T11:49:29.874Z,30.02
2022-08-01T11:52:07.588Z,28.75
2022-08-01T11:54:39.356Z,28.66
2022-08-01T11:57:13.959Z,28.20
2022-08-01T12:00:02.672Z,28.27
2022-08-01T12:02:39.691Z,29.09
2022-08-01T12:05:11.655Z,29.45
2022-08-01T12:07:42.278Z,28.03
2022-08-01T12:10:14.005Z,28.11
2022-08-01T12:12:52.376Z,28.03
2022-08-01T12:15:22.862Z,28.37
2022-08-01T12:17:57.504Z,28.00
2022-08-01T12:20:29.998Z,27.73
2022-08-01T12:23:01.206Z,27.62
2022-08-01T12:25:28.693Z,28.85
2022-08-01T12:28:00.044Z,29.29
2022-08-01T12:30:28.003Z,28.60
2022-08-01T12:32:55.895Z,29.86
2022-08-01T12:35:26.541Z,29.45
2022-08-01T12:37:56.766Z,30.50
2022-08-01T12:40:25.379Z,29.84
2022-08-01T12:42:55.690Z,28.74
2022-08-01T12:45:27.679Z,28.14
2022-08-01T12:47:56.097Z,28.27
2022-08-01T12:50:26.442Z,27.46
2022-08-01T12:52:54.064Z,27.00
2022-08-01T12:55:34.359Z,26.95
2022-08-01T12:58:31.944Z,27.77
2022-08-01T13:01:11.544Z,27.97
2022-08-01T13:03:39.575Z,27.94
2022-08-01T13:06:13.448Z,27.72
2022-08-01T13:08:41.348Z,27.79
2022-08-01T13:11:14.814Z,27.79
2022-08-01T13:13:49.407Z,28.13
2022-08-01T13:16:34.382Z,28.00
2022-08-01T13:19:07.245Z,28.40
2022-08-01T13:21:54.197Z,29.12
2022-08-01T13:24:28.826Z,29.35
2022-08-01T13:27:00.504Z,28.84
2022-08-01T13:29:35.663Z,28.97
2022-08-01T13:32:30.079Z,29.11
2022-08-01T13:35:09.901Z,28.87
2022-08-01T13:37:39.145Z,29.42
2022-08-01T13:40:08.550Z,29.20
2022-08-01T13:42:36.685Z,29.21
2022-08-01T13:45:14.325Z,28.23
2022-08-01T13:48:12.487Z,28.74
2022-08-01T13:50:33.132Z,27.51
2022-08-01T13:53:03.211Z,29.00
2022-08-01T13:55:34.665Z,28.19
2022-08-01T13:58:03.631Z,29.10
2022-08-01T14:00:31.280Z,28.61
2022-08-01T14:02:58.663Z,28.67
2022-08-01T14:05:25.997Z,28.84
2022-08-01T14:07:56.759Z,27.96
2022-08-01T14:10:25.266Z,27.43
2022-08-01T14:12:52.631Z,27.53
2022-08-01T14:15:38.712Z,25.03
2022-08-01T14:18:09.641Z,26.73
2022-08-01T14:20:38.724Z,28.24
2022-08-01T14:23:10.131Z,27.70
2022-08-01T14:26:03.095Z,27.67
2022-08-01T14:28:29.624Z,27.06
2022-08-01T14:30:58.363Z,26.66
2022-08-01T14:33:26.134Z,27.05
2022-08-01T14:36:05.203Z,27.14
2022-08-01T14:38:34.340Z,27.85
2022-08-01T14:41:04.430Z,27.55
2022-08-01T14:43:35.610Z,26.64
2022-08-01T14:46:05.276Z,26.06
2022-08-01T14:48:33.327Z,25.78
2022-08-01T14:51:04.279Z,27.75
2022-08-01T14:53:34.453Z,27.87
2022-08-01T14:56:05.070Z,28.19
2022-08-01T14:58:36.578Z,28.04
2022-08-01T15:01:08.175Z,27.30
2022-08-01T15:03:36.473Z,27.04
2022-08-01T15:06:04.408Z,27.14
2022-08-01T15:08:33.424Z,28.23
2022-08-01T15:11:02.654Z,28.27
2022-08-01T15:13:30.267Z,28.28
2022-08-01T15:16:00.178Z,28.57
2022-08-01T15:18:29.080Z,28.97
2022-08-01T15:20:58.192Z,28.73
2022-08-01T15:23:25.608Z,27.93
2022-08-01T15:25:52.963Z,28.42
2022-08-01T15:28:20.938Z,27.64
2022-08-01T15:30:48.281Z,28.28
2022-08-01T15:33:15.830Z,28.33
2022-08-01T15:35:43.615Z,29.13
2022-08-01T15:38:11.020Z,29.08
2022-08-01T15:40:38.555Z,28.62
2022-08-01T15:43:06.162Z,28.01
2022-08-01T15:45:49.401Z,29.25
2022-08-01T15:48:17.309Z,27.98
2022-08-01T15:50:44.755Z,28.56
2022-08-01T15:53:12.274Z,28.62
2022-08-01T15:55:40.040Z,27.50
2022-08-01T15:58:11.208Z,28.41
2022-08-01T16:00:40.163Z,28.84
2022-08-01T16:03:08.546Z,28.17
2022-08-01T16:05:43.155Z,27.90
2022-08-01T16:08:12.693Z,29.28
2022-08-01T16:10:40.340Z,28.71
2022-08-01T16:13:08.299Z,28.43
2022-08-01T16:15:37.686Z,28.33
2022-08-01T16:18:07.315Z,28.26
2022-08-01T16:20:35.363Z,28.38
2022-08-01T16:23:02.683Z,28.91
2022-08-01T16:25:30.208Z,29.17
2022-08-01T16:27:57.535Z,29.47
2022-08-01T16:30:24.920Z,29.43
2022-08-01T16:33:00.310Z,30.06
2022-08-01T16:35:36.323Z,28.98
2022-08-01T16:38:07.132Z,30.01
2022-08-01T16:40:46.249Z,28.70
2022-08-01T16:43:15.883Z,29.42
2022-08-01T16:45:43.735Z,29.38
2022-08-01T16:48:23.408Z,31.57
2022-08-01T16:50:50.842Z,30.24
2022-08-01T16:53:22.608Z,29.03
2022-08-01T16:55:50.987Z,30.04
2022-08-01T16:58:23.517Z,32.29
2022-08-01T17:00:57.495Z,29.20
2022-08-01T17:03:46.521Z,29.68
2022-08-01T17:06:13.693Z,30.06
2022-08-01T17:08:46.947Z,29.01
2022-08-01T17:11:15.513Z,29.60
2022-08-01T17:13:46.313Z,30.06
2022-08-01T17:16:13.770Z,30.22
2022-08-01T17:18:41.329Z,31.84
2022-08-01T17:21:09.098Z,30.77
2022-08-01T17:23:36.546Z,30.01
2022-08-01T17:26:04.147Z,33.42
2022-08-01T17:28:31.556Z,29.74
2022-08-01T17:30:59.293Z,30.53
2022-08-01T17:33:45.626Z,29.48
2022-08-01T17:36:17.609Z,32.66
2022-08-01T17:38:44.927Z,30.99
2022-08-01T17:41:15.535Z,30.37
2022-08-01T17:43:42.895Z,29.76
2022-08-01T17:46:10.322Z,31.08
2022-08-01T17:48:37.671Z,29.85
2022-08-01T17:51:05.087Z,29.75
2022-08-01T17:53:34.872Z,30.09
2022-08-01T17:56:05.607Z,29.15
2022-08-01T17:58:50.822Z,29.87
2022-08-01T18:01:21.135Z,29.25
2022-08-01T18:03:49.785Z,29.12
2022-08-01T18:06:19.423Z,30.01
2022-08-01T18:08:47.896Z,30.64
2022-08-01T18:11:17.178Z,30.21
2022-08-01T18:13:45.258Z,30.57
2022-08-01T18:16:13.537Z,30.30
2022-08-01T18:18:43.409Z,30.81
2022-08-01T18:21:12.174Z,31.28
2022-08-01T18:23:39.486Z,31.60
2022-08-01T18:26:09.590Z,30.91
2022-08-01T18:28:42.024Z,32.01
2022-08-01T18:31:16.570Z,31.52
2022-08-01T18:33:44.158Z,31.46
2022-08-01T18:36:17.810Z,31.96
2022-08-01T18:39:00.245Z,31.76
2022-08-01T18:41:27.620Z,31.80
2022-08-01T18:44:05.810Z,32.63
2022-08-01T18:46:39.748Z,32.59
2022-08-01T18:49:09.164Z,32.29
2022-08-01T18:51:43.013Z,32.64
2022-08-01T18:54:12.167Z,32.67
2022-08-01T18:56:39.635Z,32.88
2022-08-01T18:59:06.971Z,33.31
2022-08-01T19:01:34.665Z,33.17
2022-08-01T19:04:02.556Z,33.86
2022-08-01T19:06:29.895Z,34.23
2022-08-01T19:09:02.084Z,34.58
2022-08-01T19:11:34.280Z,36.30
2022-08-01T19:14:03.033Z,35.57
2022-08-01T19:16:31.138Z,36.85
2022-08-01T19:18:58.559Z,37.97
2022-08-01T19:21:26.138Z,38.12
2022-08-01T19:24:12.467Z,38.45
2022-08-01T19:26:45.650Z,39.39
2022-08-01T19:29:22.258Z,39.38
2022-08-01T19:31:51.376Z,40.39
2022-08-01T19:34:26.591Z,40.85
2022-08-01T19:36:58.159Z,40.40
2022-08-01T19:39:29.579Z,40.91
2022-08-01T19:41:59.804Z,41.22
2022-08-01T19:44:28.867Z,41.19
2022-08-01T19:46:56.413Z,41.50
2022-08-01T19:49:24.098Z,41.32
2022-08-01T19:52:03.518Z,41.99
2022-08-01T19:54:37.115Z,41.88
2022-08-01T19:57:07.675Z,42.09
2022-08-01T19:59:36.266Z,41.96
2022-08-01T20:02:05.615Z,42.10
2022-08-01T20:04:34.355Z,42.17
2022-08-01T20:07:03.958Z,41.76
2022-08-01T20:09:31.767Z,41.92
2022-08-01T20:11:59.189Z,41.88
2022-08-01T20:14:27.308Z,41.89
2022-08-01T20:16:55.702Z,41.23
2022-08-01T20:19:24.652Z,41.44
2022-08-01T20:22:05.913Z,41.22
2022-08-01T20:24:43.464Z,40.18
2022-08-01T20:27:13.920Z,40.64
2022-08-01T20:29:45.802Z,40.28
2022-08-01T20:32:14.926Z,40.34
2022-08-01T20:34:43.562Z,40.48
2022-08-01T20:37:12.721Z,40.45
2022-08-01T20:39:44.170Z,40.70
2022-08-01T20:42:14.927Z,40.13
2022-08-01T20:44:45.147Z,39.99
2022-08-01T20:47:12.993Z,40.24
2022-08-01T20:49:40.770Z,39.86
2022-08-01T20:52:12.174Z,39.73
2022-08-01T20:54:41.780Z,39.30
2022-08-01T20:57:16.964Z,39.26
2022-08-01T20:59:56.564Z,39.73
2022-08-01T21:02:41.385Z,39.55
2022-08-01T21:05:11.062Z,39.76
2022-08-01T21:07:51.721Z,39.72
2022-08-01T21:10:22.290Z,39.40
2022-08-01T21:13:16.671Z,39.47
2022-08-01T21:16:22.140Z,39.17
2022-08-01T21:19:17.251Z,39.33
2022-08-01T21:21:49.409Z,38.52
2022-08-01T21:24:18.582Z,38.47
2022-08-01T21:26:46.567Z,38.86
2022-08-01T21:29:15.310Z,38.72
2022-08-01T21:31:42.690Z,38.72
2022-08-01T21:34:12.154Z,38.62
2022-08-01T21:36:42.496Z,38.90
2022-08-01T21:39:10.289Z,39.14
2022-08-01T21:41:56.742Z,39.02
2022-08-01T21:44:29.042Z,39.14
2022-08-01T21:47:00.907Z,38.73
2022-08-01T21:49:28.345Z,38.54
2022-08-01T21:52:08.809Z,38.76
2022-08-01T21:55:10.876Z,39.13
2022-08-01T21:58:07.761Z,38.94
2022-08-01T22:00:36.756Z,39.02
2022-08-01T22:03:23.182Z,39.07
2022-08-01T22:05:52.215Z,38.55
2022-08-01T22:08:39.772Z,38.85
2022-08-01T22:11:08.550Z,39.39
2022-08-01T22:13:36.063Z,39.71
2022-08-01T22:16:05.490Z,39.09
2022-08-01T22:18:35.665Z,39.16
2022-08-01T22:21:04.074Z,39.46
2022-08-01T22:23:36.206Z,39.09
2022-08-01T22:26:07.092Z,39.60
2022-08-01T22:28:36.003Z,38.67
2022-08-01T22:31:04.410Z,39.67
2022-08-01T22:33:34.705Z,39.74
2022-08-01T22:36:03.365Z,39.61
2022-08-01T22:38:30.710Z,39.71
2022-08-01T22:41:14.248Z,39.70
2022-08-01T22:44:00.853Z,39.62
2022-08-01T22:46:32.625Z,39.36
2022-08-01T22:49:02.214Z,39.62
2022-08-01T22:51:55.061Z,39.69
2022-08-01T22:54:30.155Z,39.78
2022-08-01T22:57:07.558Z,39.92
2022-08-01T22:59:46.352Z,40.63
2022-08-01T23:02:16.273Z,39.47
2022-08-01T23:04:47.112Z,40.33
2022-08-01T23:07:20.196Z,40.03
2022-08-01T23:09:53.772Z,40.01
2022-08-01T23:12:27.551Z,40.25
2022-08-01T23:14:56.959Z,40.42
2022-08-01T23:17:28.807Z,39.80
2022-08-01T23:20:02.478Z,40.38
2022-08-01T23:22:32.409Z,39.85
2022-08-01T23:25:03.898Z,39.80
2022-08-01T23:27:54.110Z,39.57
2022-08-01T23:30:25.604Z,40.48
2022-08-01T23:32:53.611Z,40.64
2022-08-01T23:35:21.097Z,40.71
2022-08-01T23:37:50.929Z,40.87
2022-08-01T23:40:19.530Z,41.47
2022-08-01T23:42:46.966Z,42.03
2022-08-01T23:45:14.619Z,41.84
2022-08-01T23:47:42.251Z,40.87
2022-08-01T23:50:09.842Z,41.03
2022-08-01T23:52:41.969Z,41.17
2022-08-01T23:55:15.977Z,40.88
2022-08-01T23:57:43.558Z,40.82
